Flight Track Log - Related Links

Times and Time Zones

All times are in EDT time to prevent confusion due to time zone crossing. See the JBU1781 flight status page for this flight to view local times or setup timezone preferences in your user account.

Time Position Orientation Groundspeed Altitude Reporting Facility
EDT Latitude Longitude Course Direction KTS MPH feet Rate Location/Type
Thu 02:01:27 PM 28.4500 -81.3167 127° Southeast 154 177 500  Level Orlando TRACON
Thu 02:02:21 PM 28.4833 -81.2833 41° Northeast 207 238 2,200 2,474 Climbing Orlando TRACON
Thu 02:03:21 PM 28.5167 -81.2167 60° Northeast 270 311 5,200 2,828 Climbing Orlando TRACON
Thu 02:04:00 PM 28.1416 -80.9688 134° Southeast  Level Estimated
Thu 02:04:58 PM 28.5694 -81.1064 61° Northeast 294 338 9,600  Level Miami Center
Thu 02:05:00 PM 28.0695 -80.8840 139° Southeast  Level Estimated
Thu 02:05:58 PM 28.5219 -81.0217 123° Southeast 266 306 12,500  Level Miami Center
Thu 02:06:00 PM 27.9974 -80.7994 127° Southeast  Level Estimated
Thu 02:06:58 PM 28.4556 -80.9344 131° Southeast 298 343 14,500  Level Miami Center
Thu 02:07:58 PM 28.3831 -80.8419 132° Southeast 352 405 17,300 3,050 Climbing Miami Center
Thu 02:08:58 PM 28.3025 -80.7356 131° Southeast 387 445 20,600 2,600 Climbing Miami Center
Thu 02:09:58 PM 28.2422 -80.6556 131° Southeast 387 445 22,500 1,200 Climbing Miami Center
Thu 02:10:58 PM 28.1675 -80.5589 131° Southeast 393 452 23,000 250 Climbing Miami Center
Thu 02:11:58 PM 28.0944 -80.4694 133° Southeast 393 452 23,000  Level Miami Center
Thu 02:12:58 PM 28.0136 -80.3658 131° Southeast 393 452 23,000  Level Miami Center
Thu 02:13:58 PM 27.9428 -80.2719 130° Southeast 398 458 23,000  Level Miami Center
Thu 02:14:58 PM 27.8678 -80.1781 132° Southeast 398 458 23,000  Level Miami Center
Thu 02:15:58 PM 27.7986 -80.0939 133° Southeast 398 458 23,000  Level Miami Center
Thu 02:16:58 PM 27.7256 -80.0028 132° Southeast 398 458 23,000  Level Miami Center
Thu 02:17:58 PM 27.6503 -79.9069 132° Southeast 398 458 23,000  Level Miami Center
Thu 02:18:58 PM 27.5753 -79.8042 129° Southeast 393 452 23,000  Level Miami Center
Thu 02:19:58 PM 27.5000 -79.7108 132° Southeast 393 452 23,000 -400 Level Miami Center
Thu 02:20:58 PM 27.4347 -79.6272 131° Southeast 398 458 22,200 -850 Descending Miami Center
Thu 02:21:58 PM 27.3592 -79.5344 133° Southeast 398 458 21,300 -600 Descending Miami Center
Thu 02:22:58 PM 27.2775 -79.4319 132° Southeast 393 452 21,000 -150 Descending Miami Center
Thu 02:23:58 PM 27.2061 -79.3417 132° Southeast 398 458 21,000  Level Miami Center
Thu 02:24:58 PM 27.1303 -79.2489 133° Southeast 392 451 21,000  Level Miami Center
Thu 02:25:58 PM 27.0544 -79.1564 133° Southeast 397 457 21,000  Level Miami Center
Thu 02:26:58 PM 26.9828 -79.0664 132° Southeast 397 457 21,000  Level Miami Center
Thu 02:27:58 PM 26.9089 -78.9742 132° Southeast 397 457 21,000  Level Miami Center
Thu 02:28:58 PM 26.8414 -78.8869 131° Southeast 390 449 21,000  Level Miami Center
Thu 02:29:58 PM 26.7611 -78.7900 133° Southeast 397 457 21,000  Level Miami Center
Thu 02:30:58 PM 26.6892 -78.7028 133° Southeast 394 453 21,000  Level Miami Center
Thu 02:31:58 PM 26.6189 -78.6297 137° Southeast 389 448 21,000  Level Miami Center
Thu 02:32:58 PM 26.5492 -78.5333 129° Southeast 389 448 21,000  Level Miami Center
Thu 02:33:58 PM 26.4750 -78.4442 133° Southeast 389 448 21,000  Level Miami Center
Thu 02:34:58 PM 26.4006 -78.3572 134° Southeast 389 448 21,000  Level Miami Center
Thu 02:35:58 PM 26.3306 -78.2636 130° Southeast 394 453 21,000  Level Miami Center
Thu 02:36:58 PM 26.2561 -78.1725 132° Southeast 394 453 21,000  Level Miami Center
Thu 02:37:58 PM 26.1797 -78.0836 134° Southeast 394 453 21,000 -450 Level Miami Center
Thu 02:38:58 PM 26.1114 -77.9972 131° Southeast 389 448 20,100 -1,000 Descending Miami Center
Thu 02:39:58 PM 26.0408 -77.9156 134° Southeast 376 433 19,000 -1,150 Descending Miami Center
Thu 02:40:58 PM 25.9744 -77.8411 135° Southeast 354 407 17,800 -1,150 Descending Miami Center
Thu 02:41:58 PM 25.9103 -77.7597 131° Southeast 349 402 16,700 -1,100 Descending Miami Center
Thu 02:42:58 PM 25.8458 -77.6831 133° Southeast 349 402 15,600 -1,050 Descending Miami Center
Thu 02:43:58 PM 25.7836 -77.6089 133° Southeast 342 394 14,600 -1,200 Descending Miami Center
Thu 02:44:58 PM 25.7044 -77.5714 157° South 312 359 13,200 -1,400 Descending Miami Center
Thu 02:45:58 PM 25.6186 -77.5778 184° South 300 345 11,800 -1,000 Descending Miami Center
Thu 02:46:58 PM 25.5703 -77.6328 226° Southwest 238 274 11,200 -600 Descending Miami Center
Thu 02:48:00 PM 25.5092 -77.5483 129° Southeast  Level FlightAware Approximate
Thu 02:55:00 PM 25.0390 -77.4662 170° South  Level Estimated
Thu 02:56:00 PM 25.0390 -77.4662 170° South  Level Estimated
Thu 02:57:00 PM 25.0390 -77.4662 170° South  Level Estimated
Thu 02:58:00 PM 25.0390 -77.4662 170° South  Level Estimated
Thu 02:59:00 PM 25.0390 -77.4662 170° South  Level Estimated
Thu 03:00:00 PM 25.0390 -77.4662 170° South  Level Estimated
Thu 03:01:00 PM 25.0390 -77.4662 170° South  Level Estimated
Thu 03:02:00 PM 25.0390 -77.4662 170° South  Level Estimated
Thu 03:03:00 PM 25.0390 -77.4662 170° South  Level Estimated
Thu 03:04:00 PM 25.0390 -77.4662 170° South  Level Estimated
Thu 03:05:00 PM 25.0390 -77.4662 170° South  Level Estimated

Login

Don't have an account? Register now (free) for customized features, flight alerts, and more!